sensor_id;sensor_type;location;lat;lon;timestamp;temperature;humidity
22471;DHT22;11402;51.374;6.594;2023-06-04T00:02:03;12.60;99.90
22471;DHT22;11402;51.374;6.594;2023-06-04T00:04:28;12.80;99.90
22471;DHT22;11402;51.374;6.594;2023-06-04T00:06:55;12.70;99.90
22471;DHT22;11402;51.374;6.594;2023-06-04T00:09:21;12.60;99.90
22471;DHT22;11402;51.374;6.594;2023-06-04T00:11:46;12.50;99.90
22471;DHT22;11402;51.374;6.594;2023-06-04T00:14:13;12.50;99.90
22471;DHT22;11402;51.374;6.594;2023-06-04T00:16:39;12.50;99.90
22471;DHT22;11402;51.374;6.594;2023-06-04T00:19:06;12.50;99.90
22471;DHT22;11402;51.374;6.594;2023-06-04T00:21:32;12.40;99.90
22471;DHT22;11402;51.374;6.594;2023-06-04T00:23:58;12.40;99.90
22471;DHT22;11402;51.374;6.594;2023-06-04T00:26:24;12.40;99.90
22471;DHT22;11402;51.374;6.594;2023-06-04T00:28:50;12.30;99.90
22471;DHT22;11402;51.374;6.594;2023-06-04T00:31:15;12.50;99.90
22471;DHT22;11402;51.374;6.594;2023-06-04T00:33:41;12.20;99.90
22471;DHT22;11402;51.374;6.594;2023-06-04T00:36:07;11.90;99.90
22471;DHT22;11402;51.374;6.594;2023-06-04T00:38:33;12.10;99.90
22471;DHT22;11402;51.374;6.594;2023-06-04T00:40:58;12.10;99.90
22471;DHT22;11402;51.374;6.594;2023-06-04T00:43:25;12.00;99.90
22471;DHT22;11402;51.374;6.594;2023-06-04T00:45:53;11.90;99.90
22471;DHT22;11402;51.374;6.594;2023-06-04T00:48:19;11.90;99.90
22471;DHT22;11402;51.374;6.594;2023-06-04T00:50:45;12.00;99.90
22471;DHT22;11402;51.374;6.594;2023-06-04T00:53:12;11.90;99.90
22471;DHT22;11402;51.374;6.594;2023-06-04T00:55:38;12.00;99.90
22471;DHT22;11402;51.374;6.594;2023-06-04T00:58:04;12.00;99.90
22471;DHT22;11402;51.374;6.594;2023-06-04T01:00:30;11.90;99.90
22471;DHT22;11402;51.374;6.594;2023-06-04T01:02:58;12.10;99.90
22471;DHT22;11402;51.374;6.594;2023-06-04T01:05:41;12.00;99.90
22471;DHT22;11402;51.374;6.594;2023-06-04T01:08:09;12.00;99.90
22471;DHT22;11402;51.374;6.594;2023-06-04T01:10:35;12.00;99.90
22471;DHT22;11402;51.374;6.594;2023-06-04T01:13:01;12.20;99.90
22471;DHT22;11402;51.374;6.594;2023-06-04T01:15:27;12.30;99.90
22471;DHT22;11402;51.374;6.594;2023-06-04T01:17:58;12.50;99.90
22471;DHT22;11402;51.374;6.594;2023-06-04T01:20:43;12.50;99.90
22471;DHT22;11402;51.374;6.594;2023-06-04T01:23:26;12.50;99.90
22471;DHT22;11402;51.374;6.594;2023-06-04T01:26:03;12.50;99.90
22471;DHT22;11402;51.374;6.594;2023-06-04T01:28:30;12.50;99.90
22471;DHT22;11402;51.374;6.594;2023-06-04T01:30:56;12.30;99.90
22471;DHT22;11402;51.374;6.594;2023-06-04T01:33:23;12.30;99.90
22471;DHT22;11402;51.374;6.594;2023-06-04T01:35:49;12.30;99.90
22471;DHT22;11402;51.374;6.594;2023-06-04T01:38:15;12.40;99.90
22471;DHT22;11402;51.374;6.594;2023-06-04T01:40:40;12.40;99.90
22471;DHT22;11402;51.374;6.594;2023-06-04T01:43:06;12.20;99.90
22471;DHT22;11402;51.374;6.594;2023-06-04T01:45:32;12.10;99.90
22471;DHT22;11402;51.374;6.594;2023-06-04T01:48:02;12.20;99.90
22471;DHT22;11402;51.374;6.594;2023-06-04T01:50:28;12.30;99.90
22471;DHT22;11402;51.374;6.594;2023-06-04T01:52:54;12.40;99.90
22471;DHT22;11402;51.374;6.594;2023-06-04T01:55:20;12.40;99.90
22471;DHT22;11402;51.374;6.594;2023-06-04T01:57:46;12.20;99.90
22471;DHT22;11402;51.374;6.594;2023-06-04T02:00:16;12.30;99.90
22471;DHT22;11402;51.374;6.594;2023-06-04T02:02:43;12.10;99.90
22471;DHT22;11402;51.374;6.594;2023-06-04T02:05:09;12.10;99.90
22471;DHT22;11402;51.374;6.594;2023-06-04T02:07:36;12.30;99.90
22471;DHT22;11402;51.374;6.594;2023-06-04T02:10:11;12.10;99.90
22471;DHT22;11402;51.374;6.594;2023-06-04T02:12:38;11.90;99.90
22471;DHT22;11402;51.374;6.594;2023-06-04T02:15:05;11.80;99.90
22471;DHT22;11402;51.374;6.594;2023-06-04T02:17:31;11.70;99.90
22471;DHT22;11402;51.374;6.594;2023-06-04T02:19:58;11.60;99.90
22471;DHT22;11402;51.374;6.594;2023-06-04T02:22:24;11.40;99.90
22471;DHT22;11402;51.374;6.594;2023-06-04T02:24:51;11.50;99.90
22471;DHT22;11402;51.374;6.594;2023-06-04T02:27:17;11.40;99.90
22471;DHT22;11402;51.374;6.594;2023-06-04T02:29:42;11.20;99.90
22471;DHT22;11402;51.374;6.594;2023-06-04T02:32:08;11.40;99.90
22471;DHT22;11402;51.374;6.594;2023-06-04T02:34:35;11.30;99.90
22471;DHT22;11402;51.374;6.594;2023-06-04T02:37:01;11.50;99.90
22471;DHT22;11402;51.374;6.594;2023-06-04T02:39:26;11.70;99.90
22471;DHT22;11402;51.374;6.594;2023-06-04T02:41:52;11.70;99.90
22471;DHT22;11402;51.374;6.594;2023-06-04T02:44:17;12.00;99.90
22471;DHT22;11402;51.374;6.594;2023-06-04T02:46:44;12.00;99.90
22471;DHT22;11402;51.374;6.594;2023-06-04T02:49:10;11.80;99.90
22471;DHT22;11402;51.374;6.594;2023-06-04T02:51:42;12.00;99.90
22471;DHT22;11402;51.374;6.594;2023-06-04T02:54:08;11.80;99.90
22471;DHT22;11402;51.374;6.594;2023-06-04T02:56:35;11.70;99.90
22471;DHT22;11402;51.374;6.594;2023-06-04T02:59:01;11.80;99.90
22471;DHT22;11402;51.374;6.594;2023-06-04T03:01:27;11.90;99.90
22471;DHT22;11402;51.374;6.594;2023-06-04T03:03:53;11.70;99.90
22471;DHT22;11402;51.374;6.594;2023-06-04T03:06:20;11.70;99.90
22471;DHT22;11402;51.374;6.594;2023-06-04T03:08:46;11.60;99.90
22471;DHT22;11402;51.374;6.594;2023-06-04T03:11:12;11.60;99.90
22471;DHT22;11402;51.374;6.594;2023-06-04T03:13:38;11.50;99.90
22471;DHT22;11402;51.374;6.594;2023-06-04T03:16:04;11.80;99.90
22471;DHT22;11402;51.374;6.594;2023-06-04T03:18:39;11.80;99.90
22471;DHT22;11402;51.374;6.594;2023-06-04T03:21:05;11.70;99.90
22471;DHT22;11402;51.374;6.594;2023-06-04T03:23:32;11.50;99.90
22471;DHT22;11402;51.374;6.594;2023-06-04T03:25:58;11.40;99.90
22471;DHT22;11402;51.374;6.594;2023-06-04T03:28:24;11.40;99.90
22471;DHT22;11402;51.374;6.594;2023-06-04T03:30:49;11.40;99.90
22471;DHT22;11402;51.374;6.594;2023-06-04T03:33:15;11.50;99.90
22471;DHT22;11402;51.374;6.594;2023-06-04T03:35:41;11.40;99.90
22471;DHT22;11402;51.374;6.594;2023-06-04T03:38:07;11.60;99.90
22471;DHT22;11402;51.374;6.594;2023-06-04T03:40:32;11.40;99.90
22471;DHT22;11402;51.374;6.594;2023-06-04T03:42:58;11.30;99.90
22471;DHT22;11402;51.374;6.594;2023-06-04T03:45:23;11.30;99.90
22471;DHT22;11402;51.374;6.594;2023-06-04T03:47:49;11.30;99.90
22471;DHT22;11402;51.374;6.594;2023-06-04T03:50:15;11.30;99.90
22471;DHT22;11402;51.374;6.594;2023-06-04T03:52:40;11.30;99.90
22471;DHT22;11402;51.374;6.594;2023-06-04T03:55:06;11.50;99.90
22471;DHT22;11402;51.374;6.594;2023-06-04T03:57:32;11.50;99.90
22471;DHT22;11402;51.374;6.594;2023-06-04T03:59:58;11.30;99.90
22471;DHT22;11402;51.374;6.594;2023-06-04T04:02:23;11.30;99.90
22471;DHT22;11402;51.374;6.594;2023-06-04T04:04:49;11.30;99.90
22471;DHT22;11402;51.374;6.594;2023-06-04T04:07:15;11.40;99.90
22471;DHT22;11402;51.374;6.594;2023-06-04T04:09:41;11.40;99.90
22471;DHT22;11402;51.374;6.594;2023-06-04T04:12:07;11.40;99.90
22471;DHT22;11402;51.374;6.594;2023-06-04T04:14:32;11.40;99.90
22471;DHT22;11402;51.374;6.594;2023-06-04T04:16:58;11.50;99.90
22471;DHT22;11402;51.374;6.594;2023-06-04T04:19:23;11.60;99.90
22471;DHT22;11402;51.374;6.594;2023-06-04T04:21:49;11.60;99.90
22471;DHT22;11402;51.374;6.594;2023-06-04T04:24:24;11.60;99.90
22471;DHT22;11402;51.374;6.594;2023-06-04T04:26:51;11.60;99.90
22471;DHT22;11402;51.374;6.594;2023-06-04T04:29:23;11.60;99.90
22471;DHT22;11402;51.374;6.594;2023-06-04T04:31:50;11.70;99.90
22471;DHT22;11402;51.374;6.594;2023-06-04T04:34:16;11.80;99.90
22471;DHT22;11402;51.374;6.594;2023-06-04T04:36:45;11.90;99.90
22471;DHT22;11402;51.374;6.594;2023-06-04T04:39:18;12.00;99.90
22471;DHT22;11402;51.374;6.594;2023-06-04T04:41:44;12.20;99.90
22471;DHT22;11402;51.374;6.594;2023-06-04T04:44:10;12.20;99.90
22471;DHT22;11402;51.374;6.594;2023-06-04T04:46:35;12.10;99.90
22471;DHT22;11402;51.374;6.594;2023-06-04T04:49:01;12.30;99.90
22471;DHT22;11402;51.374;6.594;2023-06-04T04:51:27;12.50;99.90
22471;DHT22;11402;51.374;6.594;2023-06-04T04:53:53;12.50;99.90
22471;DHT22;11402;51.374;6.594;2023-06-04T04:56:20;12.50;99.90
22471;DHT22;11402;51.374;6.594;2023-06-04T04:58:45;12.60;99.90
22471;DHT22;11402;51.374;6.594;2023-06-04T05:01:11;12.70;99.90
22471;DHT22;11402;51.374;6.594;2023-06-04T05:03:36;12.70;99.90
22471;DHT22;11402;51.374;6.594;2023-06-04T05:06:02;12.90;99.90
22471;DHT22;11402;51.374;6.594;2023-06-04T05:08:28;12.80;99.90
22471;DHT22;11402;51.374;6.594;2023-06-04T05:10:53;12.80;99.90
22471;DHT22;11402;51.374;6.594;2023-06-04T05:13:19;13.00;99.90
22471;DHT22;11402;51.374;6.594;2023-06-04T05:15:45;13.10;99.90
22471;DHT22;11402;51.374;6.594;2023-06-04T05:18:13;13.20;99.90
22471;DHT22;11402;51.374;6.594;2023-06-04T05:20:38;13.30;99.90
22471;DHT22;11402;51.374;6.594;2023-06-04T05:23:04;13.30;99.90
22471;DHT22;11402;51.374;6.594;2023-06-04T05:25:30;13.40;99.90
22471;DHT22;11402;51.374;6.594;2023-06-04T05:27:56;13.60;99.90
22471;DHT22;11402;51.374;6.594;2023-06-04T05:30:22;13.60;99.90
22471;DHT22;11402;51.374;6.594;2023-06-04T05:32:48;13.60;99.90
22471;DHT22;11402;51.374;6.594;2023-06-04T05:35:16;13.70;99.90
22471;DHT22;11402;51.374;6.594;2023-06-04T05:37:42;13.80;99.90
22471;DHT22;11402;51.374;6.594;2023-06-04T05:40:08;13.70;99.90
22471;DHT22;11402;51.374;6.594;2023-06-04T05:42:35;13.70;99.90
22471;DHT22;11402;51.374;6.594;2023-06-04T05:45:01;13.80;99.90
22471;DHT22;11402;51.374;6.594;2023-06-04T05:47:27;13.90;99.90
22471;DHT22;11402;51.374;6.594;2023-06-04T05:49:56;14.00;99.90
22471;DHT22;11402;51.374;6.594;2023-06-04T05:52:22;14.00;99.90
22471;DHT22;11402;51.374;6.594;2023-06-04T05:54:48;14.10;99.90
22471;DHT22;11402;51.374;6.594;2023-06-04T05:57:14;14.30;99.90
22471;DHT22;11402;51.374;6.594;2023-06-04T05:59:40;14.60;99.90
22471;DHT22;11402;51.374;6.594;2023-06-04T06:02:05;14.80;99.90
22471;DHT22;11402;51.374;6.594;2023-06-04T06:04:31;14.70;99.90
22471;DHT22;11402;51.374;6.594;2023-06-04T06:06:57;14.90;99.90
22471;DHT22;11402;51.374;6.594;2023-06-04T06:09:22;14.80;99.90
22471;DHT22;11402;51.374;6.594;2023-06-04T06:11:48;14.90;99.90
22471;DHT22;11402;51.374;6.594;2023-06-04T06:14:14;15.10;99.90
22471;DHT22;11402;51.374;6.594;2023-06-04T06:16:40;15.10;99.90
22471;DHT22;11402;51.374;6.594;2023-06-04T06:19:06;15.20;99.90
22471;DHT22;11402;51.374;6.594;2023-06-04T06:21:31;15.30;99.90
22471;DHT22;11402;51.374;6.594;2023-06-04T06:23:57;15.40;99.90
22471;DHT22;11402;51.374;6.594;2023-06-04T06:26:22;15.60;99.90
22471;DHT22;11402;51.374;6.594;2023-06-04T06:28:49;15.30;99.90
22471;DHT22;11402;51.374;6.594;2023-06-04T06:31:15;15.50;99.90
22471;DHT22;11402;51.374;6.594;2023-06-04T06:33:40;15.30;99.90
22471;DHT22;11402;51.374;6.594;2023-06-04T06:36:08;15.50;99.90
22471;DHT22;11402;51.374;6.594;2023-06-04T06:38:33;15.60;99.90
22471;DHT22;11402;51.374;6.594;2023-06-04T06:40:59;15.70;99.90
22471;DHT22;11402;51.374;6.594;2023-06-04T06:43:24;15.70;99.90
22471;DHT22;11402;51.374;6.594;2023-06-04T06:45:50;16.00;99.90
22471;DHT22;11402;51.374;6.594;2023-06-04T06:48:16;16.20;99.90
22471;DHT22;11402;51.374;6.594;2023-06-04T06:50:42;16.40;99.90
22471;DHT22;11402;51.374;6.594;2023-06-04T06:53:07;16.30;99.90
22471;DHT22;11402;51.374;6.594;2023-06-04T06:55:33;16.60;99.90
22471;DHT22;11402;51.374;6.594;2023-06-04T06:57:58;16.60;99.90
22471;DHT22;11402;51.374;6.594;2023-06-04T07:00:26;16.70;99.90
22471;DHT22;11402;51.374;6.594;2023-06-04T07:02:51;16.70;99.90
22471;DHT22;11402;51.374;6.594;2023-06-04T07:05:17;16.80;99.90
22471;DHT22;11402;51.374;6.594;2023-06-04T07:07:43;17.10;99.90
22471;DHT22;11402;51.374;6.594;2023-06-04T07:10:09;17.10;99.90
22471;DHT22;11402;51.374;6.594;2023-06-04T07:12:34;17.00;99.90
22471;DHT22;11402;51.374;6.594;2023-06-04T07:15:00;17.10;99.90
22471;DHT22;11402;51.374;6.594;2023-06-04T07:17:26;17.00;99.90
22471;DHT22;11402;51.374;6.594;2023-06-04T07:19:51;17.00;99.90
22471;DHT22;11402;51.374;6.594;2023-06-04T07:22:17;17.20;99.90
22471;DHT22;11402;51.374;6.594;2023-06-04T07:24:42;17.50;99.90
22471;DHT22;11402;51.374;6.594;2023-06-04T07:27:15;17.70;99.90
22471;DHT22;11402;51.374;6.594;2023-06-04T07:29:43;17.50;99.90
22471;DHT22;11402;51.374;6.594;2023-06-04T07:32:10;17.60;99.90
22471;DHT22;11402;51.374;6.594;2023-06-04T07:34:35;17.70;99.90
22471;DHT22;11402;51.374;6.594;2023-06-04T07:37:02;17.90;99.90
22471;DHT22;11402;51.374;6.594;2023-06-04T07:39:28;18.00;99.90
22471;DHT22;11402;51.374;6.594;2023-06-04T07:41:54;17.90;99.90
22471;DHT22;11402;51.374;6.594;2023-06-04T07:44:19;18.00;99.90
22471;DHT22;11402;51.374;6.594;2023-06-04T07:46:45;18.10;99.90
22471;DHT22;11402;51.374;6.594;2023-06-04T07:49:11;18.30;99.90
22471;DHT22;11402;51.374;6.594;2023-06-04T07:51:36;18.10;99.90
22471;DHT22;11402;51.374;6.594;2023-06-04T07:54:02;18.00;99.90
22471;DHT22;11402;51.374;6.594;2023-06-04T07:56:28;18.00;99.90
22471;DHT22;11402;51.374;6.594;2023-06-04T07:58:54;18.00;99.90
22471;DHT22;11402;51.374;6.594;2023-06-04T08:01:20;18.30;99.90
22471;DHT22;11402;51.374;6.594;2023-06-04T08:03:47;18.60;99.90
22471;DHT22;11402;51.374;6.594;2023-06-04T08:06:12;18.60;99.90
22471;DHT22;11402;51.374;6.594;2023-06-04T08:08:42;18.70;99.90
22471;DHT22;11402;51.374;6.594;2023-06-04T08:11:09;18.80;99.90
22471;DHT22;11402;51.374;6.594;2023-06-04T08:13:35;18.70;99.90
22471;DHT22;11402;51.374;6.594;2023-06-04T08:16:00;18.80;99.90
22471;DHT22;11402;51.374;6.594;2023-06-04T08:18:26;19.00;99.90
22471;DHT22;11402;51.374;6.594;2023-06-04T08:20:51;18.80;99.80
22471;DHT22;11402;51.374;6.594;2023-06-04T08:23:17;19.00;99.90
22471;DHT22;11402;51.374;6.594;2023-06-04T08:25:43;19.10;99.90
22471;DHT22;11402;51.374;6.594;2023-06-04T08:28:08;19.10;98.20
22471;DHT22;11402;51.374;6.594;2023-06-04T08:30:35;19.30;98.30
22471;DHT22;11402;51.374;6.594;2023-06-04T08:33:01;19.20;95.90
22471;DHT22;11402;51.374;6.594;2023-06-04T08:35:27;19.40;97.50
22471;DHT22;11402;51.374;6.594;2023-06-04T08:37:52;19.60;97.60
22471;DHT22;11402;51.374;6.594;2023-06-04T08:40:18;19.60;94.00
22471;DHT22;11402;51.374;6.594;2023-06-04T08:42:44;19.60;91.30
22471;DHT22;11402;51.374;6.594;2023-06-04T08:45:11;19.50;86.70
22471;DHT22;11402;51.374;6.594;2023-06-04T08:47:44;19.70;89.40
22471;DHT22;11402;51.374;6.594;2023-06-04T08:50:16;19.80;84.00
22471;DHT22;11402;51.374;6.594;2023-06-04T08:52:43;19.90;89.50
22471;DHT22;11402;51.374;6.594;2023-06-04T08:55:11;19.90;80.70
22471;DHT22;11402;51.374;6.594;2023-06-04T08:57:39;19.80;77.40
22471;DHT22;11402;51.374;6.594;2023-06-04T09:00:06;19.80;79.80
22471;DHT22;11402;51.374;6.594;2023-06-04T09:02:35;20.00;75.10
22471;DHT22;11402;51.374;6.594;2023-06-04T09:05:04;20.20;78.90
22471;DHT22;11402;51.374;6.594;2023-06-04T09:07:30;20.30;73.90
22471;DHT22;11402;51.374;6.594;2023-06-04T09:09:58;20.40;74.80
22471;DHT22;11402;51.374;6.594;2023-06-04T09:12:24;20.40;72.70
22471;DHT22;11402;51.374;6.594;2023-06-04T09:14:50;20.40;74.30
22471;DHT22;11402;51.374;6.594;2023-06-04T09:17:23;20.30;73.90
22471;DHT22;11402;51.374;6.594;2023-06-04T09:19:49;20.50;79.10
22471;DHT22;11402;51.374;6.594;2023-06-04T09:22:15;20.60;74.70
22471;DHT22;11402;51.374;6.594;2023-06-04T09:24:43;20.60;76.00
22471;DHT22;11402;51.374;6.594;2023-06-04T09:27:19;20.80;75.10
22471;DHT22;11402;51.374;6.594;2023-06-04T09:29:50;20.70;73.50
22471;DHT22;11402;51.374;6.594;2023-06-04T09:32:24;20.80;65.30
22471;DHT22;11402;51.374;6.594;2023-06-04T09:34:50;20.70;65.20
22471;DHT22;11402;51.374;6.594;2023-06-04T09:37:18;20.90;69.90
22471;DHT22;11402;51.374;6.594;2023-06-04T09:39:55;20.90;63.90
22471;DHT22;11402;51.374;6.594;2023-06-04T09:42:23;20.80;66.60
22471;DHT22;11402;51.374;6.594;2023-06-04T09:44:49;21.00;64.10
22471;DHT22;11402;51.374;6.594;2023-06-04T09:47:15;21.20;61.70
22471;DHT22;11402;51.374;6.594;2023-06-04T09:49:47;21.20;60.50
22471;DHT22;11402;51.374;6.594;2023-06-04T09:52:15;21.20;62.70
22471;DHT22;11402;51.374;6.594;2023-06-04T09:54:41;21.30;59.10
22471;DHT22;11402;51.374;6.594;2023-06-04T09:57:18;21.30;61.80
22471;DHT22;11402;51.374;6.594;2023-06-04T09:59:45;21.10;60.50
22471;DHT22;11402;51.374;6.594;2023-06-04T10:02:18;21.00;59.70
22471;DHT22;11402;51.374;6.594;2023-06-04T10:04:50;20.80;58.50
22471;DHT22;11402;51.374;6.594;2023-06-04T10:07:18;20.80;58.90
22471;DHT22;11402;51.374;6.594;2023-06-04T10:09:44;21.00;57.60
22471;DHT22;11402;51.374;6.594;2023-06-04T10:12:16;21.20;61.10
22471;DHT22;11402;51.374;6.594;2023-06-04T10:14:52;21.30;61.60
22471;DHT22;11402;51.374;6.594;2023-06-04T10:17:22;20.90;56.20
22471;DHT22;11402;51.374;6.594;2023-06-04T10:19:49;21.10;62.30
22471;DHT22;11402;51.374;6.594;2023-06-04T10:22:17;21.50;61.40
22471;DHT22;11402;51.374;6.594;2023-06-04T10:24:43;21.70;59.30
22471;DHT22;11402;51.374;6.594;2023-06-04T10:27:10;21.70;58.30
22471;DHT22;11402;51.374;6.594;2023-06-04T10:29:38;21.30;56.40
22471;DHT22;11402;51.374;6.594;2023-06-04T10:32:04;21.40;58.60
22471;DHT22;11402;51.374;6.594;2023-06-04T10:34:30;21.20;55.00
22471;DHT22;11402;51.374;6.594;2023-06-04T10:36:56;21.10;55.30
22471;DHT22;11402;51.374;6.594;2023-06-04T10:39:29;21.40;57.90
22471;DHT22;11402;51.374;6.594;2023-06-04T10:42:04;21.30;57.80
22471;DHT22;11402;51.374;6.594;2023-06-04T10:44:31;21.30;56.50
22471;DHT22;11402;51.374;6.594;2023-06-04T10:46:58;21.40;54.40
22471;DHT22;11402;51.374;6.594;2023-06-04T10:49:30;21.40;57.00
22471;DHT22;11402;51.374;6.594;2023-06-04T10:51:56;21.50;55.70
22471;DHT22;11402;51.374;6.594;2023-06-04T10:54:25;21.50;56.70
22471;DHT22;11402;51.374;6.594;2023-06-04T10:56:52;21.70;57.20
22471;DHT22;11402;51.374;6.594;2023-06-04T10:59:19;21.60;58.70
22471;DHT22;11402;51.374;6.594;2023-06-04T11:01:45;21.90;56.60
22471;DHT22;11402;51.374;6.594;2023-06-04T11:04:24;21.90;53.90
22471;DHT22;11402;51.374;6.594;2023-06-04T11:07:08;21.70;55.30
22471;DHT22;11402;51.374;6.594;2023-06-04T11:09:52;21.50;53.80
22471;DHT22;11402;51.374;6.594;2023-06-04T11:12:18;21.60;55.60
22471;DHT22;11402;51.374;6.594;2023-06-04T11:14:56;21.60;56.20
22471;DHT22;11402;51.374;6.594;2023-06-04T11:17:22;21.60;54.60
22471;DHT22;11402;51.374;6.594;2023-06-04T11:19:47;22.20;57.30
22471;DHT22;11402;51.374;6.594;2023-06-04T11:22:14;21.60;56.00
22471;DHT22;11402;51.374;6.594;2023-06-04T11:24:39;21.80;53.90
22471;DHT22;11402;51.374;6.594;2023-06-04T11:27:05;21.70;52.90
22471;DHT22;11402;51.374;6.594;2023-06-04T11:29:32;21.70;54.20
22471;DHT22;11402;51.374;6.594;2023-06-04T11:31:58;21.60;52.10
22471;DHT22;11402;51.374;6.594;2023-06-04T11:34:28;21.70;53.80
22471;DHT22;11402;51.374;6.594;2023-06-04T11:36:54;21.60;51.80
22471;DHT22;11402;51.374;6.594;2023-06-04T11:39:33;21.60;50.50
22471;DHT22;11402;51.374;6.594;2023-06-04T11:41:59;21.70;51.20
22471;DHT22;11402;51.374;6.594;2023-06-04T11:44:29;21.90;54.00
22471;DHT22;11402;51.374;6.594;2023-06-04T11:46:55;22.00;53.90
22471;DHT22;11402;51.374;6.594;2023-06-04T11:49:20;22.10;55.50
22471;DHT22;11402;51.374;6.594;2023-06-04T11:51:47;22.10;55.00
22471;DHT22;11402;51.374;6.594;2023-06-04T11:54:17;22.20;53.70
22471;DHT22;11402;51.374;6.594;2023-06-04T11:56:43;22.20;52.00
22471;DHT22;11402;51.374;6.594;2023-06-04T11:59:11;22.10;50.80
22471;DHT22;11402;51.374;6.594;2023-06-04T12:01:39;22.00;52.30
22471;DHT22;11402;51.374;6.594;2023-06-04T12:04:15;21.90;52.80
22471;DHT22;11402;51.374;6.594;2023-06-04T12:06:55;21.90;50.10
22471;DHT22;11402;51.374;6.594;2023-06-04T12:09:30;21.70;47.60
22471;DHT22;11402;51.374;6.594;2023-06-04T12:12:05;21.80;52.70
22471;DHT22;11402;51.374;6.594;2023-06-04T12:14:32;21.90;54.40
22471;DHT22;11402;51.374;6.594;2023-06-04T12:17:10;22.00;53.00
22471;DHT22;11402;51.374;6.594;2023-06-04T12:19:50;22.10;53.60
22471;DHT22;11402;51.374;6.594;2023-06-04T12:22:16;21.80;50.60
22471;DHT22;11402;51.374;6.594;2023-06-04T12:24:53;21.80;51.00
22471;DHT22;11402;51.374;6.594;2023-06-04T12:27:20;21.90;51.40
22471;DHT22;11402;51.374;6.594;2023-06-04T12:30:18;22.10;52.80
22471;DHT22;11402;51.374;6.594;2023-06-04T12:32:43;22.00;48.80
22471;DHT22;11402;51.374;6.594;2023-06-04T12:35:11;22.20;50.90
22471;DHT22;11402;51.374;6.594;2023-06-04T12:37:36;22.30;53.60
22471;DHT22;11402;51.374;6.594;2023-06-04T12:40:02;22.20;49.80
22471;DHT22;11402;51.374;6.594;2023-06-04T12:42:29;22.20;51.30
22471;DHT22;11402;51.374;6.594;2023-06-04T12:44:55;22.00;50.80
22471;DHT22;11402;51.374;6.594;2023-06-04T12:47:21;22.10;52.60
22471;DHT22;11402;51.374;6.594;2023-06-04T12:49:47;22.20;49.70
22471;DHT22;11402;51.374;6.594;2023-06-04T12:52:13;22.10;50.90
22471;DHT22;11402;51.374;6.594;2023-06-04T12:54:42;22.10;49.00
22471;DHT22;11402;51.374;6.594;2023-06-04T12:57:07;22.30;52.40
22471;DHT22;11402;51.374;6.594;2023-06-04T12:59:33;22.30;50.40
22471;DHT22;11402;51.374;6.594;2023-06-04T13:01:58;22.30;50.80
22471;DHT22;11402;51.374;6.594;2023-06-04T13:04:24;22.30;52.20
22471;DHT22;11402;51.374;6.594;2023-06-04T13:06:50;22.30;50.10
22471;DHT22;11402;51.374;6.594;2023-06-04T13:09:24;22.40;50.80
22471;DHT22;11402;51.374;6.594;2023-06-04T13:11:50;22.50;54.30
22471;DHT22;11402;51.374;6.594;2023-06-04T13:14:16;22.60;52.60
22471;DHT22;11402;51.374;6.594;2023-06-04T13:16:42;22.60;51.90
22471;DHT22;11402;51.374;6.594;2023-06-04T13:19:08;22.60;49.70
22471;DHT22;11402;51.374;6.594;2023-06-04T13:21:34;22.60;51.80
22471;DHT22;11402;51.374;6.594;2023-06-04T13:24:00;22.50;49.90
22471;DHT22;11402;51.374;6.594;2023-06-04T13:26:26;22.50;49.80
22471;DHT22;11402;51.374;6.594;2023-06-04T13:28:51;22.40;49.20
22471;DHT22;11402;51.374;6.594;2023-06-04T13:31:17;22.30;46.80
22471;DHT22;11402;51.374;6.594;2023-06-04T13:33:43;22.40;46.10
22471;DHT22;11402;51.374;6.594;2023-06-04T13:36:09;22.40;48.70
22471;DHT22;11402;51.374;6.594;2023-06-04T13:38:35;22.50;51.20
22471;DHT22;11402;51.374;6.594;2023-06-04T13:41:00;22.60;49.70
22471;DHT22;11402;51.374;6.594;2023-06-04T13:43:26;22.50;48.00
22471;DHT22;11402;51.374;6.594;2023-06-04T13:45:52;22.60;51.20
22471;DHT22;11402;51.374;6.594;2023-06-04T13:48:17;22.70;49.90
22471;DHT22;11402;51.374;6.594;2023-06-04T13:50:43;22.70;49.30
22471;DHT22;11402;51.374;6.594;2023-06-04T13:53:09;22.60;50.10
22471;DHT22;11402;51.374;6.594;2023-06-04T13:55:35;22.60;51.70
22471;DHT22;11402;51.374;6.594;2023-06-04T13:58:00;22.80;47.60
22471;DHT22;11402;51.374;6.594;2023-06-04T14:00:26;22.60;50.40
22471;DHT22;11402;51.374;6.594;2023-06-04T14:02:52;22.60;46.50
22471;DHT22;11402;51.374;6.594;2023-06-04T14:05:20;22.40;48.20
22471;DHT22;11402;51.374;6.594;2023-06-04T14:07:46;22.50;46.90
22471;DHT22;11402;51.374;6.594;2023-06-04T14:10:11;22.50;48.80
22471;DHT22;11402;51.374;6.594;2023-06-04T14:12:38;22.50;48.90
22471;DHT22;11402;51.374;6.594;2023-06-04T14:15:06;22.30;47.30
22471;DHT22;11402;51.374;6.594;2023-06-04T14:17:32;22.40;47.20
22471;DHT22;11402;51.374;6.594;2023-06-04T14:19:59;22.40;49.20
22471;DHT22;11402;51.374;6.594;2023-06-04T14:22:25;22.50;49.00
22471;DHT22;11402;51.374;6.594;2023-06-04T14:24:50;22.50;47.70
22471;DHT22;11402;51.374;6.594;2023-06-04T14:27:16;22.40;47.70
22471;DHT22;11402;51.374;6.594;2023-06-04T14:29:42;22.40;44.30
22471;DHT22;11402;51.374;6.594;2023-06-04T14:32:07;22.50;48.10
22471;DHT22;11402;51.374;6.594;2023-06-04T14:34:33;22.60;47.00
22471;DHT22;11402;51.374;6.594;2023-06-04T14:36:59;22.60;49.50
22471;DHT22;11402;51.374;6.594;2023-06-04T14:39:28;22.70;49.20
22471;DHT22;11402;51.374;6.594;2023-06-04T14:41:53;22.60;46.80
22471;DHT22;11402;51.374;6.594;2023-06-04T14:44:20;22.70;49.00
22471;DHT22;11402;51.374;6.594;2023-06-04T14:46:46;22.70;48.50
22471;DHT22;11402;51.374;6.594;2023-06-04T14:49:12;22.60;49.40
22471;DHT22;11402;51.374;6.594;2023-06-04T14:51:38;22.60;48.70
22471;DHT22;11402;51.374;6.594;2023-06-04T14:54:03;22.60;48.70
22471;DHT22;11402;51.374;6.594;2023-06-04T14:56:29;22.60;46.50
22471;DHT22;11402;51.374;6.594;2023-06-04T14:58:56;22.80;48.50
22471;DHT22;11402;51.374;6.594;2023-06-04T15:01:21;22.80;47.90
22471;DHT22;11402;51.374;6.594;2023-06-04T15:03:50;22.80;48.80
22471;DHT22;11402;51.374;6.594;2023-06-04T15:06:16;22.70;47.60
22471;DHT22;11402;51.374;6.594;2023-06-04T15:08:42;22.80;47.80
22471;DHT22;11402;51.374;6.594;2023-06-04T15:11:07;22.70;46.60
22471;DHT22;11402;51.374;6.594;2023-06-04T15:13:33;22.70;46.10
22471;DHT22;11402;51.374;6.594;2023-06-04T15:15:58;22.90;47.40
22471;DHT22;11402;51.374;6.594;2023-06-04T15:18:24;22.80;47.00
22471;DHT22;11402;51.374;6.594;2023-06-04T15:20:49;22.90;47.70
22471;DHT22;11402;51.374;6.594;2023-06-04T15:23:15;22.70;45.30
22471;DHT22;11402;51.374;6.594;2023-06-04T15:25:43;22.80;45.40
22471;DHT22;11402;51.374;6.594;2023-06-04T15:28:09;23.00;46.50
22471;DHT22;11402;51.374;6.594;2023-06-04T15:30:34;23.00;48.20